Time;durP1;ratioP1;P1;durP2;ratioP2;P2;SDS_P1;SDS_P2;PMS_P1;PMS_P2;Temp;Humidity;BMP_temperature;BMP_pressure;BME280_temperature;BME280_humidity;BME280_pressure;Samples;Min_cycle;Max_cycle;Signal;HPM_P1;HPM_P2
2022/07/07 06:58:17;;;;;;;6.15;1.70;;;17.40;94.60;;;;;;5082149;27;1515025;-53
2022/07/07 07:00:44;;;;;;;4.40;1.58;;;17.40;94.70;;;;;;5105924;27;20048;-54
2022/07/07 07:03:11;;;;;;;5.13;1.60;;;17.40;94.80;;;;;;5110463;28;20101;-49
2022/07/07 07:05:38;;;;;;;4.22;1.45;;;17.50;94.70;;;;;;5104191;28;20505;-52
2022/07/07 07:08:05;;;;;;;5.18;1.60;;;17.60;94.60;;;;;;5104787;28;20118;-50
2022/07/07 07:10:32;;;;;;;4.68;1.50;;;17.60;94.60;;;;;;5108273;28;20040;-50
2022/07/07 07:12:58;;;;;;;4.65;1.70;;;17.60;94.70;;;;;;5110015;28;20432;-53
2022/07/07 07:15:25;;;;;;;6.75;1.80;;;17.60;94.60;;;;;;5104976;28;20047;-50
2022/07/07 07:17:52;;;;;;;4.15;1.90;;;17.70;94.60;;;;;;5109768;28;20064;-54
2022/07/07 07:20:19;;;;;;;4.28;1.60;;;17.70;94.50;;;;;;5110302;28;20036;-53
2022/07/07 07:22:45;;;;;;;5.15;1.70;;;17.80;94.40;;;;;;5110050;28;20036;-54
2022/07/07 07:25:12;;;;;;;6.13;1.60;;;17.80;94.30;;;;;;5110028;28;20104;-53
2022/07/07 07:27:39;;;;;;;5.13;1.80;;;17.80;94.30;;;;;;5109906;28;20071;-51
2022/07/07 07:30:06;;;;;;;6.47;1.52;;;17.80;94.30;;;;;;5110103;28;20047;-52
2022/07/07 07:32:32;;;;;;;4.57;1.55;;;17.80;94.10;;;;;;5109970;28;20064;-53
2022/07/07 07:34:59;;;;;;;6.32;1.70;;;17.80;94.10;;;;;;5110195;28;20044;-51
2022/07/07 07:37:26;;;;;;;3.97;1.60;;;17.80;94.30;;;;;;5109776;28;20063;-52
2022/07/07 07:39:53;;;;;;;4.38;1.60;;;17.90;94.00;;;;;;5109748;28;20218;-53
2022/07/07 07:42:19;;;;;;;4.70;1.85;;;18.00;94.00;;;;;;5109923;28;20513;-47
2022/07/07 07:47:31;;;;;;;5.22;1.70;;;18.10;93.60;;;;;;5109610;28;20043;-46
2022/07/07 07:49:58;;;;;;;4.72;1.60;;;18.10;93.50;;;;;;5109759;28;20445;-49
2022/07/07 07:52:25;;;;;;;6.97;1.70;;;18.10;93.30;;;;;;5109571;28;20040;-53
2022/07/07 07:54:52;;;;;;;6.05;1.95;;;18.00;93.40;;;;;;5109555;28;20036;-54
2022/07/07 07:57:19;;;;;;;4.57;1.60;;;18.00;93.50;;;;;;5109331;28;20056;-51
2022/07/07 07:59:46;;;;;;;5.35;1.80;;;18.00;93.50;;;;;;5109821;28;20044;-56
2022/07/07 08:02:13;;;;;;;3.33;1.42;;;18.10;93.50;;;;;;5109497;28;20043;-58
2022/07/07 08:04:39;;;;;;;3.72;1.65;;;18.10;93.30;;;;;;5109301;28;20067;-59
2022/07/07 08:07:06;;;;;;;5.35;1.65;;;18.20;93.10;;;;;;5108746;28;20043;-53
2022/07/07 08:09:33;;;;;;;5.40;1.60;;;18.20;93.00;;;;;;5096644;28;20044;-51
2022/07/07 08:12:00;;;;;;;4.28;1.75;;;18.20;92.90;;;;;;5095968;28;20032;-53
2022/07/07 08:14:26;;;;;;;7.18;1.70;;;18.20;93.00;;;;;;5096057;28;20044;-48
2022/07/07 18:58:31;;;;;;;2.95;1.15;;;26.00;59.90;;;;;;5065186;28;20409;-52
2022/07/07 19:01:00;;;;;;;2.55;1.20;;;25.70;61.00;;;;;;5051132;28;20037;-54
2022/07/07 19:03:27;;;;;;;2.88;1.20;;;25.60;60.80;;;;;;5049817;28;20045;-51
2022/07/07 19:05:54;;;;;;;3.50;1.20;;;25.50;60.80;;;;;;5055000;28;20054;-55
2022/07/07 19:08:21;;;;;;;3.53;1.10;;;25.40;61.50;;;;;;5049771;28;20099;-52
2022/07/07 19:10:48;;;;;;;4.35;1.23;;;25.30;61.70;;;;;;5049806;28;20048;-49
2022/07/07 19:13:14;;;;;;;4.72;1.40;;;25.30;62.00;;;;;;5044663;28;20064;-56
2022/07/07 19:15:41;;;;;;;5.40;1.67;;;25.30;61.70;;;;;;5050060;28;20044;-54
2022/07/07 19:18:08;;;;;;;6.45;1.30;;;25.20;61.70;;;;;;5050105;28;20483;-50
2022/07/07 19:20:35;;;;;;;2.20;1.10;;;25.20;62.30;;;;;;5050295;28;20452;-55
2022/07/07 19:23:02;;;;;;;3.60;1.33;;;25.10;62.50;;;;;;5050074;28;20033;-52
2022/07/07 19:25:28;;;;;;;3.85;1.45;;;25.00;62.50;;;;;;5050053;28;20437;-56
2022/07/07 19:27:55;;;;;;;2.30;1.20;;;24.90;62.70;;;;;;5043360;28;20053;-53
2022/07/07 19:30:22;;;;;;;3.20;1.27;;;24.90;62.60;;;;;;5049848;28;20049;-54
2022/07/07 19:32:48;;;;;;;2.92;1.58;;;24.80;63.00;;;;;;5049955;28;20511;-55
2022/07/07 19:35:15;;;;;;;3.10;1.30;;;24.70;63.20;;;;;;5052118;28;20048;-48
2022/07/07 19:37:42;;;;;;;5.40;1.60;;;24.60;64.10;;;;;;5050006;28;20045;-56
2022/07/07 19:40:09;;;;;;;3.53;1.42;;;24.60;63.70;;;;;;5049763;28;20046;-52
2022/07/07 19:42:35;;;;;;;3.15;1.25;;;24.50;64.10;;;;;;5049555;28;20037;-54
2022/07/07 19:45:02;;;;;;;2.45;1.40;;;24.40;63.50;;;;;;5049610;28;20044;-49
2022/07/07 19:47:29;;;;;;;2.22;1.30;;;24.40;64.00;;;;;;5049551;28;20045;-53
2022/07/07 19:49:56;;;;;;;4.28;1.45;;;24.30;64.20;;;;;;5049574;28;20049;-51
2022/07/07 19:52:22;;;;;;;4.00;1.30;;;24.20;64.10;;;;;;5049404;28;20045;-53
2022/07/07 19:54:49;;;;;;;4.80;1.45;;;24.10;64.30;;;;;;5055492;28;20045;-53
2022/07/07 19:57:16;;;;;;;4.32;1.63;;;24.00;64.50;;;;;;5048894;28;20053;-51
2022/07/07 19:59:43;;;;;;;4.35;1.42;;;23.90;64.80;;;;;;5048117;28;20099;-56
2022/07/07 20:02:09;;;;;;;3.97;1.50;;;23.80;65.10;;;;;;5052552;28;20041;-50
2022/07/07 20:04:36;;;;;;;5.35;1.75;;;23.70;65.40;;;;;;5049276;28;20385;-51
2022/07/07 20:07:03;;;;;;;5.55;1.85;;;23.60;65.70;;;;;;5049157;28;20067;-55
2022/07/07 20:09:30;;;;;;;3.35;1.70;;;23.50;65.80;;;;;;5038258;28;20037;-50
2022/07/07 20:11:57;;;;;;;4.78;2.38;;;23.50;66.00;;;;;;5035599;28;20046;-52
2022/07/07 20:14:26;;;;;;;3.47;1.70;;;23.40;66.40;;;;;;5036018;28;20448;-49
2022/07/07 20:16:53;;;;;;;6.80;1.83;;;23.30;66.80;;;;;;5034703;28;20036;-53
2022/07/07 20:19:20;;;;;;;4.10;2.13;;;23.20;67.10;;;;;;5035877;28;20037;-49
2022/07/07 20:21:47;;;;;;;4.03;2.17;;;23.10;67.50;;;;;;5035683;28;20087;-53
2022/07/07 20:24:14;;;;;;;5.63;2.30;;;23.00;67.60;;;;;;5035870;28;20041;-54
2022/07/07 20:26:41;;;;;;;6.90;2.42;;;22.90;68.00;;;;;;5035611;28;20045;-54
2022/07/07 20:29:07;;;;;;;4.72;2.10;;;22.80;68.40;;;;;;5035505;28;20111;-49
2022/07/07 20:31:34;;;;;;;6.82;1.85;;;22.80;68.60;;;;;;5035463;28;20049;-55
2022/07/07 20:34:03;;;;;;;3.85;2.10;;;22.70;68.90;;;;;;5035483;28;20465;-54
2022/07/07 20:36:29;;;;;;;4.32;2.05;;;22.60;68.90;;;;;;5038443;28;20431;-53
2022/07/07 20:38:56;;;;;;;6.18;2.20;;;22.50;69.90;;;;;;5035288;28;20045;-53
2022/07/07 20:41:23;;;;;;;6.20;2.90;;;22.50;69.50;;;;;;5035384;28;20041;-54
2022/07/07 20:43:50;;;;;;;10.70;3.35;;;22.40;69.50;;;;;;5039265;28;20041;-49
2022/07/07 20:46:17;;;;;;;6.85;3.30;;;22.30;70.00;;;;;;5035351;28;21287;-54
2022/07/07 20:48:44;;;;;;;10.50;3.58;;;22.20;70.30;;;;;;5035383;28;20049;-49
2022/07/07 20:51:12;;;;;;;10.02;3.50;;;22.10;70.40;;;;;;5035149;28;20045;-56
2022/07/07 20:53:39;;;;;;;10.00;4.10;;;22.00;70.80;;;;;;5035016;28;20050;-53
2022/07/07 20:56:06;;;;;;;8.45;4.30;;;21.90;71.00;;;;;;5034721;28;20045;-50
2022/07/07 20:58:33;;;;;;;9.35;5.03;;;21.80;71.30;;;;;;5030788;28;20500;-50
2022/07/07 21:00:59;;;;;;;9.00;5.50;;;21.80;71.40;;;;;;5035823;28;20037;-52
2022/07/07 21:03:26;;;;;;;8.55;4.80;;;21.70;71.30;;;;;;5034651;28;20099;-52
